Time;durP1;ratioP1;P1;durP2;ratioP2;P2;SDS_P1;SDS_P2;PMS_P1;PMS_P2;Temp;Humidity;BMP_temperature;BMP_pressure;BME280_temperature;BME280_humidity;BME280_pressure;Samples;Min_cycle;Max_cycle;Signal;HPM_P1;HPM_P2
2022/01/10 00:00:57;;;;;;;7.68;3.45;;;;;;;18.36;42.92;100965.19;5031589;28;20065;-62
2022/01/10 00:03:24;;;;;;;11.57;3.65;;;;;;;18.31;43.05;100970.00;5032230;28;20378;-64
2022/01/10 00:05:50;;;;;;;9.27;3.95;;;;;;;18.30;43.26;100981.50;5031863;28;20449;-62
2022/01/10 00:08:16;;;;;;;9.70;3.72;;;;;;;18.27;42.98;100992.31;5031470;28;20017;-62
2022/01/10 00:10:44;;;;;;;8.13;3.70;;;;;;;18.23;43.27;100994.34;5031861;28;20029;-64
2022/01/10 00:13:13;;;;;;;10.57;3.72;;;;;;;18.22;43.15;100999.75;5032189;28;20029;-62
2022/01/10 00:15:39;;;;;;;7.47;3.47;;;;;;;18.21;42.97;101005.97;5031998;28;20058;-62
2022/01/10 00:18:04;;;;;;;8.38;3.22;;;;;;;18.18;43.06;101014.13;5035331;28;20120;-62
2022/01/10 00:20:29;;;;;;;11.02;3.70;;;;;;;18.14;43.04;101010.91;5034543;28;20026;-62
2022/01/10 00:22:55;;;;;;;7.72;3.60;;;;;;;18.12;42.94;101013.66;5035777;28;20029;-62
2022/01/10 00:25:22;;;;;;;9.57;3.83;;;;;;;18.09;43.27;101013.91;5035555;28;20052;-62
2022/01/10 00:27:53;;;;;;;8.02;3.78;;;;;;;18.08;43.29;101008.75;5034118;28;20115;-62
2022/01/10 00:30:19;;;;;;;9.10;4.28;;;;;;;18.06;43.07;101010.66;5035267;28;20048;-62
2022/01/10 00:32:45;;;;;;;9.90;3.90;;;;;;;18.03;43.02;101010.91;5035118;28;20030;-62
2022/01/10 00:35:12;;;;;;;11.13;4.30;;;;;;;18.01;42.95;101018.06;5034792;28;20068;-62
2022/01/10 00:37:39;;;;;;;8.88;3.67;;;;;;;17.99;43.18;101012.97;5034854;28;20548;-62
2022/01/10 00:40:05;;;;;;;9.45;4.30;;;;;;;17.97;43.25;101020.13;5035373;28;20093;-61
2022/01/10 00:42:32;;;;;;;8.15;4.40;;;;;;;17.95;43.02;101016.78;5034239;28;20473;-62
2022/01/10 00:45:01;;;;;;;8.85;4.10;;;;;;;17.94;42.93;101021.22;5035139;28;20069;-62
2022/01/10 00:47:26;;;;;;;9.10;4.18;;;;;;;17.92;43.28;101017.84;5035285;28;20021;-61
2022/01/10 00:49:51;;;;;;;9.52;4.03;;;;;;;17.90;42.84;101026.84;5034141;28;20370;-61
2022/01/10 00:52:17;;;;;;;9.65;4.80;;;;;;;17.88;43.30;101029.59;5035042;28;20025;-61
2022/01/10 00:54:42;;;;;;;7.53;3.58;;;;;;;17.86;42.91;101042.00;5034538;28;20018;-61
2022/01/10 00:57:07;;;;;;;10.48;5.07;;;;;;;17.85;42.94;101044.75;5034085;28;20029;-62
2022/01/10 00:59:33;;;;;;;10.02;4.32;;;;;;;17.84;43.08;101051.00;5034486;28;20029;-62
2022/01/10 01:01:59;;;;;;;10.40;4.55;;;;;;;17.81;43.05;101054.72;5034717;28;20033;-62
2022/01/10 01:04:24;;;;;;;9.13;3.80;;;;;;;17.80;43.21;101053.06;5034244;28;20021;-62
2022/01/10 01:06:52;;;;;;;10.13;4.38;;;;;;;17.79;42.98;101056.63;5034572;28;20060;-62
2022/01/10 01:09:24;;;;;;;7.50;3.80;;;;;;;17.77;43.01;101064.66;5034808;28;20121;-62
2022/01/10 01:12:18;;;;;;;10.65;4.60;;;;;;;17.75;43.11;101061.31;5033737;28;20022;-62
2022/01/10 01:20:31;;;;;;;10.43;4.35;;;;;;;17.74;43.12;101088.63;4993081;28;20034;-61
2022/01/10 01:25:44;;;;;;;9.02;4.25;;;;;;;17.77;42.52;101095.47;5033397;28;20447;-62
2022/01/10 01:28:09;;;;;;;8.45;4.30;;;;;;;17.80;42.67;101105.78;5033588;28;20042;-62
2022/01/10 01:30:34;;;;;;;8.98;4.43;;;;;;;17.81;42.64;101107.44;5033873;28;20060;-62
2022/01/10 01:33:00;;;;;;;8.70;4.43;;;;;;;17.82;42.59;101106.50;5033521;28;20029;-62
2022/01/10 01:35:26;;;;;;;11.32;4.30;;;;;;;17.82;42.37;101116.22;5034290;28;20056;-62
2022/01/10 01:37:51;;;;;;;10.95;4.47;;;;;;;17.84;42.38;101117.75;5033131;28;20044;-62
2022/01/10 01:40:18;;;;;;;8.02;4.03;;;;;;;17.84;42.59;101120.41;5034188;28;20034;-62
2022/01/10 01:42:47;;;;;;;11.00;4.30;;;;;;;17.83;42.30;101120.50;5033711;28;20557;-62
2022/01/10 01:45:13;;;;;;;9.27;5.25;;;;;;;17.84;42.37;101124.84;5033094;28;20029;-62
2022/01/10 01:47:39;;;;;;;8.25;3.92;;;;;;;17.84;42.15;101138.84;5033588;28;20037;-62
2022/01/10 01:50:06;;;;;;;10.63;4.03;;;;;;;17.84;42.11;101138.00;5033802;28;20496;-62
2022/01/10 01:52:34;;;;;;;7.93;4.20;;;;;;;17.83;42.02;101145.09;5032526;28;20128;-62
2022/01/10 01:55:04;;;;;;;9.55;5.15;;;;;;;17.85;42.23;101147.59;5034046;28;20377;-61
2022/01/10 01:57:33;;;;;;;10.45;3.78;;;;;;;17.83;42.18;101150.38;5033449;28;20063;-62
2022/01/10 01:59:59;;;;;;;11.02;4.30;;;;;;;17.83;42.33;101160.06;5033018;28;20052;-62
2022/01/10 02:02:24;;;;;;;8.60;4.13;;;;;;;17.81;42.33;101151.44;5033683;28;20025;-62
2022/01/10 02:04:49;;;;;;;8.20;4.05;;;;;;;17.81;42.49;101160.16;5033480;28;20026;-62
2022/01/10 02:07:16;;;;;;;8.32;3.83;;;;;;;17.81;42.66;101161.97;5032987;28;20485;-61
2022/01/10 02:09:41;;;;;;;11.05;4.28;;;;;;;17.81;42.46;101161.97;5033322;28;20121;-63
2022/01/10 02:12:10;;;;;;;9.48;4.65;;;;;;;17.79;42.14;101167.38;5033580;28;20185;-62
2022/01/10 02:14:35;;;;;;;9.07;4.47;;;;;;;17.78;42.36;101170.94;5032395;28;20040;-62
2022/01/10 02:17:03;;;;;;;9.65;4.10;;;;;;;17.79;42.37;101166.53;5033634;28;20108;-62
2022/01/10 02:19:28;;;;;;;9.30;4.38;;;;;;;17.79;42.04;101170.00;5033500;28;20028;-62
2022/01/10 02:21:54;;;;;;;9.00;4.70;;;;;;;17.79;42.31;101170.00;5032453;28;20393;-62
2022/01/10 02:24:20;;;;;;;9.88;4.22;;;;;;;17.80;42.17;101171.69;5033500;28;20650;-63
2022/01/10 02:26:49;;;;;;;8.57;4.00;;;;;;;17.80;41.75;101176.09;5032692;28;20036;-62
2022/01/10 02:29:18;;;;;;;9.60;4.72;;;;;;;17.80;41.75;101181.38;5032769;28;20022;-62
2022/01/10 02:31:44;;;;;;;8.32;4.28;;;;;;;17.81;41.87;101191.81;5033072;28;20155;-62
2022/01/10 02:34:10;;;;;;;9.70;5.15;;;;;;;17.80;41.72;101198.06;5032552;28;20017;-62
2022/01/10 02:36:36;;;;;;;10.40;4.45;;;;;;;17.80;41.75;101197.19;5032792;28;20022;-62
2022/01/10 02:39:08;;;;;;;8.57;4.60;;;;;;;17.80;41.91;101195.41;5033007;28;20026;-62
2022/01/10 02:41:36;;;;;;;8.82;4.25;;;;;;;17.81;42.13;101199.72;5031973;28;20030;-62
2022/01/10 02:44:09;;;;;;;12.27;4.78;;;;;;;17.83;41.96;101210.16;5033032;28;20037;-63
2022/01/10 02:46:36;;;;;;;10.13;4.47;;;;;;;17.84;41.87;101206.56;5032634;28;20055;-63
2022/01/10 02:49:13;;;;;;;8.10;4.22;;;;;;;17.83;42.00;101221.56;5032293;28;20029;-63
2022/01/10 02:51:39;;;;;;;9.32;4.70;;;;;;;17.85;41.68;101230.19;5032536;28;20501;-62
2022/01/10 02:54:08;;;;;;;8.88;4.68;;;;;;;17.86;41.85;101231.00;5032820;28;20033;-63
2022/01/10 02:56:46;;;;;;;9.45;4.35;;;;;;;17.85;41.64;101230.19;5031740;28;20025;-63
2022/01/10 02:59:11;;;;;;;8.13;4.35;;;;;;;17.86;41.60;101231.00;5032926;28;20033;-63
2022/01/10 03:01:36;;;;;;;10.37;4.17;;;;;;;17.85;41.71;101232.81;5032554;28;20461;-63
2022/01/10 03:04:02;;;;;;;9.35;4.82;;;;;;;17.86;41.83;101246.84;5031907;28;20305;-62
2022/01/10 03:06:33;;;;;;;9.13;4.70;;;;;;;17.85;41.58;101255.69;5032748;28;20025;-62
2022/01/10 03:09:05;;;;;;;10.00;4.30;;;;;;;17.85;41.62;101259.19;5032798;28;20084;-62
2022/01/10 03:11:31;;;;;;;10.60;4.20;;;;;;;17.86;42.01;101262.66;5031756;28;20053;-62
2022/01/10 03:13:56;;;;;;;7.38;4.00;;;;;;;17.86;42.08;101265.28;5032696;28;20026;-62
2022/01/10 03:16:22;;;;;;;9.32;4.03;;;;;;;17.87;41.99;101265.19;5031852;28;20037;-62
2022/01/10 03:18:50;;;;;;;8.20;4.20;;;;;;;17.88;41.96;101266.03;5032307;28;20021;-62
2022/01/10 03:21:19;;;;;;;9.23;4.03;;;;;;;17.89;41.78;101273.84;5032740;28;20271;-61
2022/01/10 03:23:44;;;;;;;9.00;4.30;;;;;;;17.88;41.88;101280.09;5031478;28;20037;-61
2022/01/10 03:26:09;;;;;;;12.60;4.88;;;;;;;17.88;41.81;101281.88;5032525;28;20029;-61
2022/01/10 03:28:35;;;;;;;8.07;4.37;;;;;;;17.88;41.70;101279.22;5032067;28;20050;-62
2022/01/10 03:31:00;;;;;;;9.32;3.83;;;;;;;17.88;41.31;101289.78;5031751;28;20773;-62
2022/01/10 03:33:25;;;;;;;9.63;4.47;;;;;;;17.88;41.22;101292.41;5032671;28;20104;-61
2022/01/10 03:35:50;;;;;;;12.57;5.07;;;;;;;17.88;41.72;101300.31;5032139;28;20463;-61
2022/01/10 03:38:16;;;;;;;11.10;4.10;;;;;;;17.87;42.15;101299.47;5031765;28;20108;-61
2022/01/10 03:40:47;;;;;;;11.45;5.22;;;;;;;17.88;42.11;101301.19;5032277;28;20036;-61
2022/01/10 03:43:12;;;;;;;9.70;4.32;;;;;;;17.88;41.90;101308.22;5032216;28;20389;-61
2022/01/10 03:45:38;;;;;;;10.80;5.28;;;;;;;17.90;42.07;101322.16;5031118;28;20041;-62
2022/01/10 03:48:03;;;;;;;7.93;3.67;;;;;;;17.90;42.12;101332.72;5032378;28;20029;-61
2022/01/10 03:50:31;;;;;;;11.13;4.35;;;;;;;17.90;41.67;101335.34;5032959;28;20037;-62
2022/01/10 03:52:57;;;;;;;10.23;4.15;;;;;;;17.88;42.05;101339.88;5035478;28;20032;-62
2022/01/10 03:55:22;;;;;;;8.40;4.22;;;;;;;17.91;42.04;101339.66;5036177;28;20029;-61
2022/01/10 03:57:50;;;;;;;11.60;4.38;;;;;;;17.90;41.80;101338.81;5035794;28;20037;-62
2022/01/10 04:00:15;;;;;;;8.02;4.50;;;;;;;17.90;42.17;101341.47;5035278;28;20056;-62
2022/01/10 04:02:45;;;;;;;8.48;4.43;;;;;;;17.90;41.75;101352.00;5035673;28;20053;-62
2022/01/10 04:05:10;;;;;;;7.75;3.88;;;;;;;17.89;41.70;101358.22;5035917;28;20072;-62
2022/01/10 04:07:37;;;;;;;8.60;4.18;;;;;;;17.90;42.15;101361.72;5035213;28;20034;-61
2022/01/10 04:10:04;;;;;;;10.63;4.30;;;;;;;17.90;42.25;101359.09;5036005;28;20047;-61
2022/01/10 04:12:29;;;;;;;11.63;4.40;;;;;;;17.90;41.97;101359.09;5035466;28;20037;-62
2022/01/10 04:14:57;;;;;;;8.80;4.43;;;;;;;17.91;42.40;101364.25;5035588;28;20021;-62
2022/01/10 04:17:22;;;;;;;9.65;4.15;;;;;;;17.91;41.95;101358.09;5035735;28;20388;-62
2022/01/10 04:19:47;;;;;;;8.97;4.03;;;;;;;17.91;42.17;101373.94;5034786;28;20026;-62
2022/01/10 04:22:13;;;;;;;10.07;4.40;;;;;;;17.91;42.10;101374.78;5036237;28;20677;-62
2022/01/10 04:24:38;;;;;;;9.43;4.22;;;;;;;17.92;41.92;101378.25;5035982;28;20030;-65
2022/01/10 04:27:04;;;;;;;10.88;4.78;;;;;;;17.91;41.62;101385.34;5035926;28;20124;-61
2022/01/10 04:29:29;;;;;;;10.32;4.65;;;;;;;17.91;41.76;101387.13;5037481;28;20084;-62
2022/01/10 04:31:59;;;;;;;7.95;4.18;;;;;;;17.90;41.63;101386.28;5036263;28;20049;-61
2022/01/10 04:34:24;;;;;;;11.48;5.40;;;;;;;17.91;41.78;101392.38;5035273;28;20022;-62
2022/01/10 04:36:49;;;;;;;8.47;4.50;;;;;;;17.90;42.14;101396.00;5035596;28;20049;-62
2022/01/10 04:39:15;;;;;;;8.48;4.85;;;;;;;17.90;42.00;101396.84;5035645;28;20271;-62
2022/01/10 04:41:40;;;;;;;7.82;4.40;;;;;;;17.91;42.14;101410.84;5034358;28;20026;-62
2022/01/10 04:44:12;;;;;;;9.30;4.05;;;;;;;17.91;42.07;101411.72;5035235;28;20033;-62
2022/01/10 04:46:39;;;;;;;10.60;4.43;;;;;;;17.92;41.99;101416.00;5034747;28;20473;-62
2022/01/10 04:49:08;;;;;;;8.88;4.05;;;;;;;17.92;42.26;101431.00;5034632;28;20028;-62
2022/01/10 04:51:33;;;;;;;10.50;4.82;;;;;;;17.92;42.06;101429.19;5034988;28;20385;-62
2022/01/10 04:53:58;;;;;;;8.82;4.20;;;;;;;17.92;41.51;101434.47;5035238;28;20021;-62
2022/01/10 04:56:24;;;;;;;8.15;4.10;;;;;;;17.92;41.51;101442.38;5034391;28;20057;-62
2022/01/10 04:58:50;;;;;;;8.98;4.65;;;;;;;17.91;41.75;101453.91;5034482;28;20120;-62
2022/01/10 05:01:16;;;;;;;9.35;4.35;;;;;;;17.90;41.79;101465.38;5034548;28;20044;-62
2022/01/10 05:03:42;;;;;;;10.93;4.25;;;;;;;17.90;42.12;101464.56;5033045;28;20025;-61
2022/01/10 05:06:10;;;;;;;8.43;4.47;;;;;;;17.90;42.45;101473.31;5034995;28;20029;-62
2022/01/10 05:08:36;;;;;;;9.35;4.22;;;;;;;17.92;42.29;101465.28;5034602;28;20075;-62
2022/01/10 05:11:07;;;;;;;8.32;4.28;;;;;;;17.92;42.18;101474.03;5034209;28;20029;-62
2022/01/10 05:13:33;;;;;;;10.55;4.40;;;;;;;17.93;42.18;101485.44;5034516;28;20075;-62
2022/01/10 05:15:58;;;;;;;9.10;4.78;;;;;;;17.92;42.06;101492.50;5033618;28;20049;-62
2022/01/10 05:18:24;;;;;;;9.55;4.15;;;;;;;17.93;42.00;101493.34;5034622;28;20032;-64
2022/01/10 05:20:55;;;;;;;9.85;4.47;;;;;;;17.91;42.07;101501.38;5034307;28;20040;-62
2022/01/10 05:23:20;;;;;;;9.18;4.65;;;;;;;17.90;41.97;101501.47;5033781;28;20038;-62
2022/01/10 05:25:46;;;;;;;8.23;4.25;;;;;;;17.91;41.82;101511.06;5034027;28;20028;-62
2022/01/10 05:28:12;;;;;;;9.48;4.45;;;;;;;17.91;42.26;101516.31;5033984;28;20041;-62
2022/01/10 05:30:39;;;;;;;7.63;4.28;;;;;;;17.91;42.68;101519.81;5033371;28;20037;-63
2022/01/10 05:33:05;;;;;;;10.50;4.57;;;;;;;17.92;42.65;101520.66;5034361;28;20412;-62
2022/01/10 05:35:35;;;;;;;11.80;4.55;;;;;;;17.92;42.61;101523.31;5033930;28;20030;-62
2022/01/10 05:38:00;;;;;;;11.25;4.60;;;;;;;17.92;42.39;101526.78;5033284;28;20505;-62
2022/01/10 05:40:25;;;;;;;11.60;4.38;;;;;;;17.93;42.30;101538.19;5034207;28;20096;-61
2022/01/10 05:42:51;;;;;;;10.18;4.68;;;;;;;17.92;42.17;101547.03;5033757;28;20041;-63
2022/01/10 05:45:16;;;;;;;9.80;4.53;;;;;;;17.92;41.95;101542.59;5033215;28;20056;-63
2022/01/10 05:47:43;;;;;;;8.98;4.40;;;;;;;17.92;42.26;101545.22;5033626;28;20037;-62
2022/01/10 05:50:12;;;;;;;9.93;4.72;;;;;;;17.91;42.11;101542.69;5034042;28;20041;-62
2022/01/10 05:52:38;;;;;;;10.73;4.50;;;;;;;17.92;42.04;101557.59;5032958;28;20029;-62
2022/01/10 05:55:05;;;;;;;11.13;4.50;;;;;;;17.91;42.62;101547.97;5033721;28;20469;-62
2022/01/10 05:57:30;;;;;;;11.43;5.07;;;;;;;17.92;42.72;101561.06;5033373;28;20037;-62
2022/01/10 05:59:55;;;;;;;10.20;5.32;;;;;;;17.92;42.34;101563.69;5032890;28;20373;-61
2022/01/10 06:02:21;;;;;;;8.68;4.40;;;;;;;17.93;42.83;101561.91;5033827;28;20052;-62
2022/01/10 06:04:46;;;;;;;9.18;4.10;;;;;;;17.94;42.87;101560.94;5033440;28;20029;-62
2022/01/10 06:07:12;;;;;;;9.60;4.20;;;;;;;17.97;43.90;101570.44;5032932;28;20481;-62
2022/01/10 06:09:38;;;;;;;11.95;4.85;;;;;;;17.98;43.84;101578.25;5033365;28;20104;-62
2022/01/10 06:12:09;;;;;;;11.60;4.25;;;;;;;18.00;44.08;101581.63;5033119;28;20127;-62
2022/01/10 06:14:35;;;;;;;11.68;4.97;;;;;;;18.03;44.06;101584.06;5033014;28;20109;-62
2022/01/10 06:17:00;;;;;;;12.20;5.18;;;;;;;18.05;44.05;101583.94;5033298;28;20140;-62
2022/01/10 06:19:25;;;;;;;9.57;4.05;;;;;;;18.07;43.87;101585.53;5032648;28;20033;-62
2022/01/10 06:21:51;;;;;;;12.30;4.77;;;;;;;18.09;43.65;101591.53;5032850;28;20489;-62
2022/01/10 06:24:16;;;;;;;8.45;4.47;;;;;;;18.09;43.46;101599.47;5033077;28;20352;-61
2022/01/10 06:26:41;;;;;;;9.00;4.10;;;;;;;18.10;43.67;101605.56;5032077;28;20057;-62
2022/01/10 06:29:09;;;;;;;7.43;4.13;;;;;;;18.11;43.52;101613.38;5032871;28;20129;-62
2022/01/10 06:31:35;;;;;;;9.27;4.10;;;;;;;18.13;44.22;101605.34;5032957;28;20290;-62
2022/01/10 06:34:00;;;;;;;11.35;4.13;;;;;;;18.16;44.67;101617.50;5032328;28;20374;-62
2022/01/10 06:36:25;;;;;;;9.17;4.00;;;;;;;18.17;45.03;101627.94;5032877;28;20061;-62
2022/01/10 06:38:51;;;;;;;7.45;3.78;;;;;;;18.20;44.72;101629.50;5032575;28;20129;-62
2022/01/10 06:41:16;;;;;;;10.15;4.03;;;;;;;18.21;44.62;101639.97;5032032;28;20025;-61
2022/01/10 06:43:41;;;;;;;10.63;3.70;;;;;;;18.22;44.92;101646.94;5032836;28;20029;-61
2022/01/10 06:46:07;;;;;;;10.27;3.85;;;;;;;18.24;44.92;101644.19;5032989;28;20506;-62
2022/01/10 06:48:32;;;;;;;10.63;3.78;;;;;;;18.24;44.75;101642.38;5031802;28;20057;-61
2022/01/10 06:50:58;;;;;;;9.35;3.92;;;;;;;18.25;44.34;101648.53;5032822;28;20021;-61
2022/01/10 06:53:23;;;;;;;9.10;4.13;;;;;;;18.26;44.30;101651.06;5032819;28;20121;-62
2022/01/10 06:55:49;;;;;;;10.57;4.15;;;;;;;18.27;44.07;101657.19;5031569;28;20064;-61
2022/01/10 06:58:14;;;;;;;9.35;3.85;;;;;;;18.27;43.99;101657.19;5032814;28;20033;-62
2022/01/10 07:00:40;;;;;;;8.67;4.10;;;;;;;18.27;44.05;101658.00;5032512;28;20052;-61
2022/01/10 07:03:06;;;;;;;8.80;4.20;;;;;;;18.28;43.63;101666.78;5031914;28;20283;-61
2022/01/10 07:05:31;;;;;;;8.68;4.18;;;;;;;18.29;44.39;101684.28;5032267;28;20488;-61
2022/01/10 07:07:56;;;;;;;8.83;3.73;;;;;;;18.29;44.69;101686.94;5032599;28;20474;-62
2022/01/10 07:10:22;;;;;;;8.13;4.00;;;;;;;18.31;45.26;101698.25;5032104;28;20369;-61
2022/01/10 07:12:47;;;;;;;9.82;3.67;;;;;;;18.31;45.23;101706.16;5032403;28;20354;-62
2022/01/10 07:15:13;;;;;;;9.07;4.13;;;;;;;18.31;45.21;101698.25;5032646;28;20021;-62
2022/01/10 07:17:41;;;;;;;8.68;4.00;;;;;;;18.34;44.80;101702.44;5031560;28;20426;-63
2022/01/10 07:20:07;;;;;;;8.57;3.70;;;;;;;18.34;45.01;101708.59;5032544;28;20029;-62
2022/01/10 07:22:33;;;;;;;10.85;3.75;;;;;;;18.35;44.58;101712.06;5031368;28;20032;-62
2022/01/10 07:24:58;;;;;;;9.40;3.90;;;;;;;18.36;44.49;101716.38;5032400;28;20041;-62
2022/01/10 07:27:23;;;;;;;10.03;4.00;;;;;;;18.36;44.44;101725.16;5036481;28;20080;-61
2022/01/10 07:29:52;;;;;;;7.30;3.85;;;;;;;18.36;44.38;101738.34;5035513;28;20287;-61
2022/01/10 07:32:18;;;;;;;10.15;4.00;;;;;;;18.37;44.36;101739.19;5036506;28;20025;-61
2022/01/10 07:34:45;;;;;;;8.98;3.85;;;;;;;18.37;44.41;101745.31;5036169;28;20113;-61
2022/01/10 07:37:11;;;;;;;8.93;4.07;;;;;;;18.37;44.28;101747.94;5035608;28;20033;-62
2022/01/10 07:39:39;;;;;;;8.70;4.60;;;;;;;18.37;44.36;101749.75;5035920;28;20506;-63
2022/01/10 07:42:04;;;;;;;8.70;3.97;;;;;;;18.37;44.43;101761.13;5036436;28;20030;-61
2022/01/10 07:44:30;;;;;;;11.27;4.00;;;;;;;18.38;44.56;101767.28;5035016;28;20396;-61
2022/01/10 07:46:58;;;;;;;10.07;4.97;;;;;;;18.31;42.39;101772.97;5036378;28;20033;-61
2022/01/10 07:49:24;;;;;;;10.02;4.18;;;;;;;18.30;44.16;101783.63;5036009;28;20017;-62
2022/01/10 07:51:49;;;;;;;8.52;4.00;;;;;;;18.32;44.67;101781.72;5035009;28;20036;-61
2022/01/10 07:54:15;;;;;;;6.88;3.40;;;;;;;18.34;44.69;101793.03;5035932;28;20492;-62
2022/01/10 07:56:40;;;;;;;8.38;3.40;;;;;;;18.38;44.58;101788.41;5035455;28;20083;-64
2022/01/10 07:59:08;;;;;;;8.27;3.08;;;;;;;18.40;44.93;101805.81;5035383;28;20048;-63
2022/01/10 08:01:33;;;;;;;9.88;3.80;;;;;;;18.44;44.70;101804.66;5035787;28;20028;-62
2022/01/10 08:03:58;;;;;;;8.55;3.58;;;;;;;18.48;44.69;101816.72;5035957;28;20021;-61
2022/01/10 08:06:24;;;;;;;9.52;3.38;;;;;;;18.48;44.72;101822.00;5035089;28;20045;-62
2022/01/10 08:08:49;;;;;;;6.82;3.53;;;;;;;18.52;44.61;101821.75;5035473;28;20080;-62
2022/01/10 08:11:15;;;;;;;7.55;3.70;;;;;;;18.53;44.90;101829.56;5035645;28;20029;-62
2022/01/10 08:13:43;;;;;;;10.38;3.47;;;;;;;18.55;45.16;101835.63;5034932;28;20096;-63
2022/01/10 08:16:09;;;;;;;7.75;3.67;;;;;;;18.58;45.19;101839.81;5036361;28;20053;-61
2022/01/10 08:18:35;;;;;;;11.57;3.67;;;;;;;18.58;45.10;101840.69;5035424;28;20029;-60
2022/01/10 08:21:01;;;;;;;8.30;3.83;;;;;;;18.59;45.07;101844.16;5034752;28;20029;-60
2022/01/10 08:23:27;;;;;;;8.88;3.80;;;;;;;18.59;44.84;101846.81;5035420;28;20083;-61
2022/01/10 08:25:52;;;;;;;12.07;3.65;;;;;;;18.59;44.79;101852.94;5034475;28;20481;-61
2022/01/10 08:28:17;;;;;;;10.33;3.60;;;;;;;18.59;45.12;101854.72;5035223;28;20050;-61
2022/01/10 08:30:43;;;;;;;10.27;5.05;;;;;;;18.56;41.86;101863.69;5035014;28;20347;-62
2022/01/10 08:33:08;;;;;;;10.95;4.47;;;;;;;18.52;43.98;101864.84;5034571;28;20104;-61
2022/01/10 08:35:33;;;;;;;10.40;4.32;;;;;;;18.52;44.17;101874.56;5035102;28;20030;-61
2022/01/10 08:37:59;;;;;;;9.55;4.18;;;;;;;18.54;44.70;101883.25;5034892;28;20043;-61
2022/01/10 08:40:24;;;;;;;9.88;4.40;;;;;;;18.55;45.29;101884.91;5034704;28;20029;-62
2022/01/10 08:42:50;;;;;;;9.07;3.80;;;;;;;18.56;44.97;101895.38;5034817;28;20465;-62
2022/01/10 08:45:18;;;;;;;8.13;3.63;;;;;;;18.57;45.34;101898.88;5035364;28;20025;-61
2022/01/10 08:47:45;;;;;;;8.23;3.67;;;;;;;18.62;45.44;101909.97;5033996;28;20029;-61
2022/01/10 08:50:11;;;;;;;11.98;4.10;;;;;;;18.63;45.51;101912.50;5035091;28;20489;-61
2022/01/10 08:52:39;;;;;;;11.32;3.80;;;;;;;18.66;45.21;101916.75;5034562;28;20425;-63
2022/01/10 08:55:05;;;;;;;8.30;3.42;;;;;;;18.66;45.51;101924.66;5034245;28;20493;-63
2022/01/10 08:57:31;;;;;;;9.18;4.70;;;;;;;18.66;45.57;101922.88;5034792;28;20037;-61
2022/01/10 08:59:56;;;;;;;9.23;4.20;;;;;;;18.65;44.48;101936.16;5034907;28;20033;-62
2022/01/10 09:02:21;;;;;;;9.40;3.80;;;;;;;18.64;45.12;101943.25;5034158;28;20026;-64
2022/01/10 09:04:47;;;;;;;10.07;4.15;;;;;;;18.64;45.57;101945.03;5034547;28;20025;-63
2022/01/10 09:07:12;;;;;;;10.25;4.38;;;;;;;18.64;45.61;101948.53;5034738;28;20489;-63
2022/01/10 09:09:38;;;;;;;9.43;4.18;;;;;;;18.64;45.35;101943.25;5033846;28;20029;-63
2022/01/10 09:12:04;;;;;;;8.48;3.53;;;;;;;18.65;45.78;101955.47;5034779;28;20033;-61
2022/01/10 09:14:29;;;;;;;9.90;3.88;;;;;;;18.65;45.30;101954.66;5034337;28;20128;-61
2022/01/10 09:16:55;;;;;;;8.55;3.65;;;;;;;18.65;45.53;101963.41;5034011;28;20037;-62
2022/01/10 09:19:20;;;;;;;8.55;3.65;;;;;;;18.65;45.71;101965.22;5034452;28;20473;-62
2022/01/10 09:21:45;;;;;;;9.47;4.20;;;;;;;18.65;45.23;101963.41;5034175;28;20022;-63
2022/01/10 09:24:14;;;;;;;9.07;4.00;;;;;;;18.66;45.26;101964.28;5033885;28;20266;-62
2022/01/10 09:26:40;;;;;;;7.88;3.65;;;;;;;18.69;45.41;101974.59;5034307;28;20033;-61
2022/01/10 09:29:05;;;;;;;8.25;3.63;;;;;;;18.70;45.41;101973.66;5033668;28;20121;-62
2022/01/10 09:31:31;;;;;;;10.68;3.72;;;;;;;18.71;45.60;101980.66;5034290;28;20072;-63
2022/01/10 09:33:56;;;;;;;7.97;3.70;;;;;;;18.71;45.48;101975.38;5034361;28;20049;-63
2022/01/10 09:36:24;;;;;;;7.38;3.97;;;;;;;18.74;45.70;101984.88;5033351;28;20061;-63
2022/01/10 09:38:52;;;;;;;7.47;3.88;;;;;;;18.74;45.39;101985.75;5033996;28;20123;-62
2022/01/10 09:41:18;;;;;;;10.70;3.40;;;;;;;18.75;45.99;101983.94;5034204;28;20053;-61
2022/01/10 09:43:51;;;;;;;6.90;3.17;;;;;;;18.74;45.86;101987.50;5033132;28;20088;-61
2022/01/10 09:46:17;;;;;;;9.82;3.58;;;;;;;18.74;45.57;101995.44;5034027;28;20045;-63
2022/01/10 09:48:43;;;;;;;7.80;3.90;;;;;;;18.74;45.72;102001.59;5033068;28;20025;-63
2022/01/10 09:51:09;;;;;;;7.05;3.95;;;;;;;18.76;45.50;102004.13;5033432;28;20037;-62
2022/01/10 09:53:35;;;;;;;8.48;3.70;;;;;;;18.76;45.64;101999.69;5033827;28;20101;-62
2022/01/10 09:56:00;;;;;;;7.30;3.08;;;;;;;18.78;45.60;102005.69;5033919;28;20105;-61
2022/01/10 09:58:25;;;;;;;9.40;4.23;;;;;;;18.79;45.36;102006.56;5033026;28;20063;-61
2022/01/10 10:00:59;;;;;;;9.03;3.97;;;;;;;18.80;45.90;102011.75;5033468;28;20337;-62
2022/01/10 10:03:25;;;;;;;8.38;3.55;;;;;;;18.81;45.80;102013.41;5034229;28;20311;-61
2022/01/10 10:05:54;;;;;;;7.45;3.58;;;;;;;18.82;45.78;102024.84;5032900;28;20068;-62
2022/01/10 10:08:21;;;;;;;8.77;3.70;;;;;;;18.82;45.68;102030.97;5033699;28;20029;-62
2022/01/10 10:10:50;;;;;;;7.93;3.90;;;;;;;18.82;45.74;102030.97;5033466;28;20031;-61
2022/01/10 10:13:16;;;;;;;7.88;3.47;;;;;;;18.83;45.63;102042.38;5032797;28;20025;-62
2022/01/10 10:15:44;;;;;;;6.70;3.50;;;;;;;18.82;45.52;102048.63;5033112;28;20131;-62
2022/01/10 10:18:11;;;;;;;7.70;3.72;;;;;;;18.83;45.67;102061.72;5033301;28;20124;-63
2022/01/10 10:20:39;;;;;;;7.85;3.60;;;;;;;18.84;45.60;102063.44;5032528;28;20117;-60
2022/01/10 10:23:05;;;;;;;7.72;3.65;;;;;;;18.87;45.87;102069.47;5033541;28;20033;-60
2022/01/10 10:25:33;;;;;;;7.78;3.13;;;;;;;18.87;45.84;102075.59;5032348;28;20022;-61
2022/01/10 10:27:58;;;;;;;6.72;2.92;;;;;;;18.89;45.35;102086.91;5033088;28;20054;-62
2022/01/10 10:30:30;;;;;;;8.85;3.90;;;;;;;18.89;45.49;102089.56;5033151;28;20116;-62
2022/01/10 10:33:14;;;;;;;7.50;3.38;;;;;;;18.89;45.76;102091.34;5032697;28;20029;-62
2022/01/10 10:35:43;;;;;;;7.70;3.30;;;;;;;18.88;45.77;102093.13;5032937;28;20026;-62
2022/01/10 10:38:09;;;;;;;7.85;3.50;;;;;;;18.89;45.91;102094.00;5033389;28;20108;-62
2022/01/10 10:40:44;;;;;;;8.90;3.47;;;;;;;18.88;45.63;102094.94;5032113;28;20120;-62
2022/01/10 10:43:10;;;;;;;9.45;4.22;;;;;;;18.86;43.81;102105.59;5033340;28;20032;-63
2022/01/10 10:45:36;;;;;;;7.40;4.03;;;;;;;18.81;44.02;102103.22;5032779;28;20030;-61
2022/01/10 10:48:06;;;;;;;6.88;3.60;;;;;;;18.78;44.43;102102.56;5032442;28;20119;-61
2022/01/10 10:50:41;;;;;;;5.38;3.03;;;;;;;18.78;45.20;102105.22;5032761;28;20013;-61
2022/01/10 10:53:09;;;;;;;8.38;3.28;;;;;;;18.79;45.09;102099.84;5033016;28;20026;-61
2022/01/10 10:55:38;;;;;;;9.95;3.50;;;;;;;18.80;45.58;102098.03;5031889;28;20533;-61
2022/01/10 10:58:05;;;;;;;7.70;3.78;;;;;;;18.80;45.65;102095.38;5032837;28;20099;-62
2022/01/10 11:00:33;;;;;;;9.50;3.58;;;;;;;18.81;45.67;102105.03;5031937;28;20026;-65
2022/01/10 11:02:58;;;;;;;7.45;3.00;;;;;;;18.81;45.74;102100.56;5032890;28;20053;-63
2022/01/10 11:05:24;;;;;;;9.02;3.25;;;;;;;18.81;45.82;102105.84;5032835;28;20067;-62
2022/01/10 11:07:49;;;;;;;8.00;3.67;;;;;;;18.80;44.46;102112.09;5031880;28;20021;-62
2022/01/10 11:10:15;;;;;;;8.48;3.63;;;;;;;18.80;44.93;102119.16;5032561;28;20054;-63
2022/01/10 11:12:47;;;;;;;7.50;3.80;;;;;;;18.87;45.32;102130.22;5035818;28;20442;-62
2022/01/10 11:15:13;;;;;;;9.52;3.70;;;;;;;18.94;45.73;102127.06;5033170;28;20105;-65
2022/01/10 11:17:41;;;;;;;7.90;3.72;;;;;;;19.02;44.58;102126.59;5032560;28;20112;-62
2022/01/10 11:20:21;;;;;;;8.32;3.65;;;;;;;19.07;44.56;102128.94;5032747;28;20030;-64
2022/01/10 11:22:54;;;;;;;6.82;3.72;;;;;;;19.08;43.50;102141.22;5032361;28;20040;-61
2022/01/10 11:25:33;;;;;;;8.07;3.57;;;;;;;19.13;43.47;102147.03;5033129;28;20079;-61
2022/01/10 11:28:06;;;;;;;8.55;4.13;;;;;;;19.09;43.17;102148.16;5032423;28;20077;-60